アティラウ の空港の天気 - METARとTAF

Atyrau Airport ( UATG / GUW ) - カザフスタン Atyrau
飛行場実況気象(Metar)
観測時間05/27 03:30 ORAT (05/26 22:30 UTC)
風向・風速西北西 6m/s
視程10km以上
天気現象
なし
気温18℃
湿度60%
気圧1017hPa
METARUATG 262230Z 30006MPS CAVOK 18/10 Q1017 R32/CLRD70 NOSIG RMK QFE764/1019
過去の天気等 Google飛行場航空写真 Wunderground天気予報

過去48時間のMETAR

飛行場予報(TAF)
発表時間: 5/26 22:02 ORAT (5/26 17:02 UTC)
予報対象時間: 26日23時 ORAT ~ 27日23時 ORAT
風向・風速南西 6m/s
視程10km以上
全天の4割程度の雲 雲底高度 1010m
27日1時 ORAT ~ 27日2時 ORAT に徐々に
風向・風速西北西 10m/s
27日19時 ORAT ~ 27日20時 ORAT に徐々に
風向・風速北西 5m/s
TAF UATG 261702Z 2618/2718 22006MPS 9999 SCT033 TX30/2712Z TN16/2701Z
BECMG 2620/2621 29010MPS
BECMG 2714/2715 32005MPS